METAR Data
IDs: Format: Raw Decoded Include TAF

Data at: 0208 UTC 25 Mar 2019

KPRO 250155Z AUTO 02010KT 7SM OVC007 08/08 A3011 RMK AO2 T00750075
KPRO 250135Z AUTO 02010KT 7SM OVC007 08/08 A3010 RMK AO2 T00750075
KPRO 250115Z AUTO 01007KT 5SM BR OVC009 07/07 A3009 RMK AO2 T00730073
KPRO 250055Z AUTO 01007KT 5SM BR OVC009 07/07 A3009 RMK AO2 T00730073
KPRO 250035Z AUTO 01004KT 5SM BR OVC007 07/07 A3008 RMK AO2 T00730073
KPRO 250015Z AUTO 36008KT 5SM BR OVC007 07/07 A3008 RMK AO2 T00730073
KPRO 242355Z AUTO 01006KT 3SM BR OVC005 07/07 A3007 RMK AO2 60001 T00730073 10080 20072
KPRO 242335Z AUTO 01006KT 3SM BR OVC005 07/07 A3006 RMK AO2 T00730073
KPRO 242315Z AUTO 02007KT 2 1/2SM BR OVC005 08/08 A3006 RMK AO2 T00750075
KPRO 242255Z AUTO 01009KT 2 1/2SM BR OVC003 08/08 A3005 RMK AO2 T00750075
KPRO 242235Z AUTO 02007KT 2SM BR OVC003 08/08 A3004 RMK AO2 T00760076
KPRO 242215Z AUTO 02008KT 2 1/2SM BR OVC003 08/08 A3004 RMK AO2 T00770077
KPRO 242155Z AUTO 02007KT 1 3/4SM BR OVC003 08/08 A3004 RMK AO2 T00760076
KPRO 242135Z AUTO 02007KT 1 1/4SM BR OVC003 08/08 A3003 RMK AO2 T00760076
KPRO 242115Z AUTO 02008KT 1SM BR OVC003 08/08 A3003 RMK AO2 T00750075
KPRO 242055Z AUTO 01008KT 1SM BR OVC003 08/08 A3003 RMK AO2 60001 T00760076
KPRO 242035Z AUTO 01009KT 1SM BR OVC003 08/08 A3002 RMK AO2 T00760076
KPRO 242015Z AUTO 01008KT 1 1/4SM BR OVC003 08/08 A3001 RMK AO2 T00780078
KPRO 241955Z AUTO 01007KT 1 1/4SM BR OVC003 08/08 A3000 RMK AO2 T00780078
KPRO 241935Z AUTO 02008KT 2 1/2SM -RA OVC005 08/08 A2999 RMK AO2 T00800080
KPRO 241915Z AUTO 00000KT 4SM -DZ OVC005 08/08 A2999 RMK AO2 T00800080
KPRO 241855Z AUTO 00000KT 4SM -RA OVC003 08/08 A2999 RMK AO2 P0001 T00780078
KPRO 241835Z AUTO 00000KT 4SM -RA OVC003 08/08 A2999 RMK AO2 P0001 T00780078
KPRO 241815Z AUTO 00000KT 3SM -RA OVC003 08/08 A2999 RMK AO2 P0001 T00770077
KPRO 241755Z AUTO 00000KT 3SM -RA OVC003 08/08 A3000 RMK AO2 60004 T00750075 10075 20062
KPRO 241735Z AUTO 00000KT 3SM -RA OVC003 08/08 A3000 RMK AO2 T00750075
KPRO 241715Z AUTO 00000KT 3SM BR BKN003 OVC010 07/07 A3001 RMK AO2 T00730073
KPRO 241655Z AUTO 00000KT 3SM BR BKN003 OVC010 07/07 A3000 RMK AO2 T00740074
KPRO 241635Z AUTO 00000KT 2 1/2SM BR OVC003 07/07 A3000 RMK AO2 T00720072
KPRO 241615Z AUTO 08005KT 2 1/2SM BR OVC003 07/07 A3000 RMK AO2 T00710071
KPRO 241555Z AUTO 08005KT 2SM BR OVC003 07/07 A3000 RMK AO2 P0003 T00700070
KPRO 241535Z AUTO 07005KT 2SM RA OVC003 07/07 A3000 RMK AO2 P0003 T00670067
KPRO 241515Z AUTO 04009KT 2SM RA OVC003 07/07 A2999 RMK AO2 P0001 T00680068
KPRO 241455Z AUTO 00000KT 3SM DZ BKN005 OVC009 07/07 A2999 RMK AO2 P0001 60001 T00670067
KPRO 241435Z AUTO 07006KT 3SM BR SCT005 OVC009 07/07 A2999 RMK AO2 T00680068
KPRO 241415Z AUTO 00000KT 3SM BR SCT004 OVC011 07/07 A2999 RMK AO2 T00700070
KPRO 241355Z AUTO 09005KT 3SM BR BKN004 OVC013 07/07 A2999 RMK AO2 T00680068
KPRO 241335Z AUTO 08006KT 3SM BR BKN006 BKN014 OVC021 07/07 A2998 RMK AO2 T00660066
KPRO 241315Z AUTO 08005KT 3SM BR SCT006 SCT014 OVC021 07/07 A2998 RMK AO2 T00650065
KPRO 241255Z AUTO 09005KT 5SM BR OVC014 06/06 A2998 RMK AO2 T00640064
KPRO 241235Z AUTO 09006KT 4SM BR OVC014 06/06 A2997 RMK AO2 T00620062
KPRO 241215Z AUTO 09006KT 4SM BR OVC016 06/06 A2997 RMK AO2 T00630063
KPRO 241155Z AUTO 08006KT 5SM BR OVC018 06/06 A2997 RMK AO2 P0001 60005 70005 T00630063 10072 20060
KPRO 241135Z AUTO 10007KT 4SM BR OVC018 06/06 A2998 RMK AO2 P0001 T00610061
KPRO 241115Z AUTO 00000KT 4SM -RA BKN018 BKN024 OVC036 06/06 A2998 RMK AO2 P0001 T00600060
KPRO 241055Z AUTO 00000KT 3SM RA BKN010 BKN026 OVC032 06/06 A2998 RMK AO2 P0002 T00600060
KPRO 241035Z AUTO 12005KT 3SM RA OVC010 06/06 A2998 RMK AO2 T00600060
KPRO 241015Z AUTO 12005KT 4SM BR BKN013 BKN020 OVC025 06/06 A2998 RMK AO2 T00600060
KPRO 240955Z AUTO 11003KT 2 1/2SM -DZ BKN018 OVC025 06/06 A2998 RMK AO2 T00610060
KPRO 240935Z AUTO 00000KT 5SM BR OVC018 07/06 A2998 RMK AO2 T00650056
KPRO 240915Z AUTO 00000KT 10SM OVC020 07/06 A2999 RMK AO2 T00660055
KPRO 240855Z AUTO 00000KT 10SM BKN022 OVC030 07/06 A2999 RMK AO2 T00660055
KPRO 240835Z AUTO 00000KT 10SM BKN020 OVC028 07/06 A3000 RMK AO2 T00670055
KPRO 240815Z AUTO 11006KT 10SM OVC020 07/06 A3000 RMK AO2 T00680055
KPRO 240755Z AUTO 11007KT 10SM OVC020 07/06 A3001 RMK AO2 T00680055
KPRO 240735Z AUTO 10006KT 10SM SCT014 OVC022 07/06 A3001 RMK AO2 T00700055
KPRO 240715Z AUTO 11007KT 10SM OVC017 07/06 A3002 RMK AO2 T00700055
KPRO 240655Z AUTO 11006KT 10SM BKN019 OVC030 07/06 A3002 RMK AO2 T00700055
KPRO 240635Z AUTO 10006KT 10SM SCT019 OVC030 07/06 A3002 RMK AO2 T00710055
KPRO 240615Z AUTO 10007KT 10SM OVC030 07/06 A3002 RMK AO2 T00700055
KPRO 240555Z AUTO 11007KT 10SM OVC032 07/06 A3003 RMK AO2 T00720055 10097 20072
KPRO 240535Z AUTO 11008KT 10SM OVC030 07/06 A3003 RMK AO2 T00740055
KPRO 240515Z AUTO 12007KT 10SM BKN030 OVC035 08/05 A3003 RMK AO2 T00750054
KPRO 240455Z AUTO 11007KT 10SM SCT030 BKN035 OVC048 07/05 A3004 RMK AO2 T00720052
KPRO 240435Z AUTO 12007KT 10SM SCT030 BKN034 OVC050 07/05 A3004 RMK AO2 T00730053
KPRO 240415Z AUTO 11008KT 10SM SCT035 OVC042 07/05 A3005 RMK AO2 T00730053
KPRO 240355Z AUTO 12008KT 10SM OVC044 07/06 A3005 RMK AO2 T00730055 401251011
KPRO 240335Z AUTO 12009KT 10SM OVC044 08/06 A3005 RMK AO2 T00750056
KPRO 240315Z AUTO 10010KT 10SM OVC042 07/06 A3005 RMK AO2 T00740057
KPRO 240255Z AUTO 11008KT 10SM OVC042 07/06 A3006 RMK AO2 T00740057
KPRO 240235Z AUTO 12010KT 10SM OVC042 07/06 A3006 RMK AO2 T00740058
KPRO 240215Z AUTO 12011KT 10SM SCT039 OVC045 08/06 A3006 RMK AO2 T00750060
KPRO 240155Z AUTO 12009KT 7SM -DZ BKN039 OVC050 08/05 A3006 RMK AO2 T00750054
KPRO 240135Z AUTO 15010KT 10SM -RA OVC050 08/03 A3007 RMK AO2 T00840028
KPRO 240115Z AUTO 13008KT 10SM -RA OVC065 09/02 A3007 RMK AO2 T00850023
KPRO 240055Z AUTO 12007KT 10SM SCT075 OVC090 09/02 A3007 RMK AO2 T00870023
KPRO 240035Z AUTO 11008KT 10SM OVC090 09/02 A3007 RMK AO2 T00900023
KPRO 240015Z AUTO 11008KT 10SM OVC090 10/02 A3008 RMK AO2 T00950020
KPRO 232355Z AUTO 12008KT 10SM OVC090 10/02 A3008 RMK AO2 T00970020 10122 20097
KPRO 232335Z AUTO 11007KT 10SM OVC090 10/02 A3007 RMK AO2 T01010022
KPRO 232315Z AUTO 11010KT 10SM OVC080 10/03 A3006 RMK AO2 T01020026
KPRO 232255Z AUTO 11009KT 10SM OVC085 11/02 A3007 RMK AO2 T01060024
KPRO 232235Z AUTO 11009KT 10SM BKN085 11/02 A3007 RMK AO2 T01080024
KPRO 232215Z AUTO 11010KT 10SM SCT065 SCT070 BKN085 11/02 A3008 RMK AO2 T01100021
KPRO 232155Z AUTO 10012KT 10SM OVC060 11/02 A3008 RMK AO2 T01100017
KPRO 232135Z AUTO 10009KT 10SM OVC060 11/02 A3009 RMK AO2 T01100018
KPRO 232115Z AUTO 10009KT 10SM SCT060 BKN085 OVC110 11/02 A3009 RMK AO2 T01110015
KPRO 232055Z AUTO 09009KT 10SM SCT060 SCT075 BKN095 11/02 A3010 RMK AO2 T01100019
KPRO 232035Z AUTO 08011KT 10SM SCT060 BKN075 OVC110 11/02 A3010 RMK AO2 T01130015
KPRO 232015Z AUTO 11011KT 10SM OVC075 12/01 A3011 RMK AO2 T01150008
KPRO 231955Z AUTO 11011KT 10SM BKN075 OVC085 11/01 A3011 RMK AO2 T01120005
KPRO 231935Z AUTO 11012KT 10SM SCT060 SCT070 BKN095 11/01 A3012 RMK AO2 T01120011
KPRO 231915Z AUTO 11013KT 10SM BKN100 12/01 A3012 RMK AO2 T01170013
KPRO 231855Z AUTO 12009KT 10SM SCT070 BKN110 12/01 A3014 RMK AO2 T01220009
KPRO 231835Z AUTO 14008KT 10SM SCT075 SCT080 BKN090 11/01 A3016 RMK AO2 T01100012
KPRO 231815Z AUTO 17010KT 10SM CLR 12/01 A3017 RMK AO2 T01150009
KPRO 231755Z AUTO 16010KT 10SM CLR 12/01 A3017 RMK AO2 T01150009 10125 21011
KPRO 231735Z AUTO 15008KT 10SM CLR 12/00 A3016 RMK AO2 T01240003
KPRO 231715Z AUTO 15011KT 10SM CLR 12/01 A3017 RMK AO2 T01200005
KPRO 231655Z AUTO 16013KT 10SM CLR 12/01 A3017 RMK AO2 T01210005
KPRO 231635Z AUTO 13009KT 10SM CLR 11/02 A3018 RMK AO2 T01110023
KPRO 231615Z AUTO 14009KT 10SM CLR 10/02 A3018 RMK AO2 T01040017
KPRO 231555Z AUTO 13009KT 10SM CLR 09/02 A3018 RMK AO2 T00910023
KPRO 231535Z AUTO 13009KT 10SM CLR 08/02 A3019 RMK AO2 T00770023
KPRO 231515Z AUTO 16009KT 10SM CLR 07/02 A3020 RMK AO2 T00690023
KPRO 231455Z AUTO 13008KT 10SM CLR 05/02 A3020 RMK AO2 T00540022
KPRO 231435Z AUTO 10008KT 10SM CLR 04/02 A3020 RMK AO2 T00400015
KPRO 231415Z AUTO 11008KT 10SM CLR 03/01 A3021 RMK AO2 T00280012